Sunrise, FL

3:34 PM EST on December 06, 2016 (GMT -0500)
Pine Island and Sunrise Blvd | | Change Station

Elev 16 ft 26.14 °N, 80.28 °W | Updated 35 seconds ago

Scattered Clouds
Scattered Clouds
85.7 °F
Feels Like 92 °F
N
4.0
Wind Variable Wind from WSW

Today
High -- | Low -- °F
--% Chance of Precip.
Yesterday
High -- | Low -- °F
Precip. -- in
Pressure 29.91 in
Visibility 10.0 miles
Clouds Scattered Clouds 3600 ft
Scattered Clouds 6000 ft
Scattered Clouds 7500 ft
Heat Index 92 °F
Dew Point 72 °F
Humidity 63%
Rainfall 0.00 in
Snow Depth Not available.
6:55 AM 5:29 PM
Waxing Crescent, 45% visible
METAR KFXE 061953Z 20009G17KT 10SM SCT036 SCT060 SCT075 29/21 A2991 RMK AO2 SLP129 T02940211
Pressure 29.91 in
Visibility 10.0 miles
Clouds Scattered Clouds 3600 ft
Scattered Clouds 6000 ft
Scattered Clouds 7500 ft
Heat Index 92 °F
Dew Point 72 °F
Humidity 63%
Rainfall 0.00 in
Snow Depth Not available.
6:55 AM 5:29 PM
Waxing Crescent, 45% visible
METAR KFXE 061953Z 20009G17KT 10SM SCT036 SCT060 SCT075 29/21 A2991 RMK AO2 SLP129 T02940211

10-Day Weather Forecast

Almanac

Astronomy

Dec. 06, 2016 Rise Set
Actual Time
Civil Twilight
Nautical Twilight
Astronomical Twilight
Moon
Length of Visible Light
Length of Day
Tomorrow will be .
, % of the Moon is Illuminated

Today's Extremes

State Highs State Lows

Community

WunderPhotos

Upload Photos

1,956,024 photos uploaded!

WunderBlog® & News

Nearby

Air Quality

  Air Quality AQ Index Pollutant
Not available.

Snow Depth

Station Depth Elevation

Earthquake Activity

City Distance Mag. Time & Date
Minimum magnitude displayed is 2.5.

Coastal Water Temperatures

Place Temperature

Stations

Nearby Weather Stations

Station Location Temp. Windchill Dew Point Humidity Wind Precip. Elev Updated Type
                   

Watches & Warnings

There are currently no watches in effect.